sensor_id;sensor_type;location;lat;lon;timestamp;temperature;humidity
20946;DHT22;10632;51.276;7.116;2023-04-03T00:02:10;1.30;99.90
20946;DHT22;10632;51.276;7.116;2023-04-03T00:04:37;1.30;99.90
20946;DHT22;10632;51.276;7.116;2023-04-03T00:07:03;1.30;99.90
20946;DHT22;10632;51.276;7.116;2023-04-03T00:09:30;1.20;99.90
20946;DHT22;10632;51.276;7.116;2023-04-03T00:11:57;1.20;99.90
20946;DHT22;10632;51.276;7.116;2023-04-03T00:14:25;1.20;99.90
20946;DHT22;10632;51.276;7.116;2023-04-03T00:16:53;1.20;99.90
20946;DHT22;10632;51.276;7.116;2023-04-03T00:19:21;1.30;99.90
20946;DHT22;10632;51.276;7.116;2023-04-03T00:21:48;1.30;99.90
20946;DHT22;10632;51.276;7.116;2023-04-03T00:24:16;1.30;99.90
20946;DHT22;10632;51.276;7.116;2023-04-03T00:26:43;1.30;99.90
20946;DHT22;10632;51.276;7.116;2023-04-03T00:29:09;1.20;99.90
20946;DHT22;10632;51.276;7.116;2023-04-03T00:31:36;1.30;99.90
20946;DHT22;10632;51.276;7.116;2023-04-03T00:34:03;1.20;99.90
20946;DHT22;10632;51.276;7.116;2023-04-03T00:36:31;1.20;99.90
20946;DHT22;10632;51.276;7.116;2023-04-03T00:39:01;1.20;99.90
20946;DHT22;10632;51.276;7.116;2023-04-03T00:41:28;1.20;99.90
20946;DHT22;10632;51.276;7.116;2023-04-03T00:43:55;1.20;99.90
20946;DHT22;10632;51.276;7.116;2023-04-03T00:46:22;1.20;99.90
20946;DHT22;10632;51.276;7.116;2023-04-03T00:48:49;1.20;99.90
20946;DHT22;10632;51.276;7.116;2023-04-03T00:51:19;1.20;99.90
20946;DHT22;10632;51.276;7.116;2023-04-03T00:53:51;1.20;99.90
20946;DHT22;10632;51.276;7.116;2023-04-03T00:56:21;1.10;99.90
20946;DHT22;10632;51.276;7.116;2023-04-03T00:58:53;1.10;99.90
20946;DHT22;10632;51.276;7.116;2023-04-03T01:01:23;1.10;99.90
20946;DHT22;10632;51.276;7.116;2023-04-03T01:03:51;1.10;99.90
20946;DHT22;10632;51.276;7.116;2023-04-03T01:06:21;1.10;99.90
20946;DHT22;10632;51.276;7.116;2023-04-03T01:08:51;1.10;99.90
20946;DHT22;10632;51.276;7.116;2023-04-03T01:11:19;1.10;99.90
20946;DHT22;10632;51.276;7.116;2023-04-03T01:13:46;1.10;99.90
20946;DHT22;10632;51.276;7.116;2023-04-03T01:16:14;1.00;99.90
20946;DHT22;10632;51.276;7.116;2023-04-03T01:18:42;1.00;99.90
20946;DHT22;10632;51.276;7.116;2023-04-03T01:21:36;1.00;99.90
20946;DHT22;10632;51.276;7.116;2023-04-03T01:24:29;1.00;99.90
20946;DHT22;10632;51.276;7.116;2023-04-03T01:26:58;1.00;99.90
20946;DHT22;10632;51.276;7.116;2023-04-03T01:29:25;1.00;99.90
20946;DHT22;10632;51.276;7.116;2023-04-03T01:31:56;1.00;99.90
20946;DHT22;10632;51.276;7.116;2023-04-03T01:34:23;1.00;99.90
20946;DHT22;10632;51.276;7.116;2023-04-03T01:36:51;1.00;99.90
20946;DHT22;10632;51.276;7.116;2023-04-03T01:39:19;1.00;99.90
20946;DHT22;10632;51.276;7.116;2023-04-03T01:41:46;1.00;99.90
20946;DHT22;10632;51.276;7.116;2023-04-03T01:44:13;1.00;99.90
20946;DHT22;10632;51.276;7.116;2023-04-03T01:46:41;0.90;99.90
20946;DHT22;10632;51.276;7.116;2023-04-03T01:49:10;0.90;99.90
20946;DHT22;10632;51.276;7.116;2023-04-03T01:51:37;0.90;99.90
20946;DHT22;10632;51.276;7.116;2023-04-03T01:54:04;0.90;99.90
20946;DHT22;10632;51.276;7.116;2023-04-03T01:56:31;0.90;99.90
20946;DHT22;10632;51.276;7.116;2023-04-03T01:58:58;0.90;99.90
20946;DHT22;10632;51.276;7.116;2023-04-03T02:01:25;0.90;99.90
20946;DHT22;10632;51.276;7.116;2023-04-03T02:03:52;0.90;99.90
20946;DHT22;10632;51.276;7.116;2023-04-03T02:06:20;0.90;99.90
20946;DHT22;10632;51.276;7.116;2023-04-03T02:08:47;0.90;99.90
20946;DHT22;10632;51.276;7.116;2023-04-03T02:11:14;0.90;99.90
20946;DHT22;10632;51.276;7.116;2023-04-03T02:13:41;0.80;99.90
20946;DHT22;10632;51.276;7.116;2023-04-03T02:16:09;0.80;99.90
20946;DHT22;10632;51.276;7.116;2023-04-03T02:18:37;0.80;99.90
20946;DHT22;10632;51.276;7.116;2023-04-03T02:21:05;0.80;99.90
20946;DHT22;10632;51.276;7.116;2023-04-03T02:23:33;0.80;99.90
20946;DHT22;10632;51.276;7.116;2023-04-03T02:26:10;0.80;99.90
20946;DHT22;10632;51.276;7.116;2023-04-03T02:28:37;0.80;99.90
20946;DHT22;10632;51.276;7.116;2023-04-03T02:31:07;0.80;99.90
20946;DHT22;10632;51.276;7.116;2023-04-03T02:33:35;0.80;99.90
20946;DHT22;10632;51.276;7.116;2023-04-03T02:36:03;0.70;99.90
20946;DHT22;10632;51.276;7.116;2023-04-03T02:38:33;0.80;99.90
20946;DHT22;10632;51.276;7.116;2023-04-03T02:41:01;0.80;99.90
20946;DHT22;10632;51.276;7.116;2023-04-03T02:43:28;0.80;99.90
20946;DHT22;10632;51.276;7.116;2023-04-03T02:45:54;0.70;99.90
20946;DHT22;10632;51.276;7.116;2023-04-03T02:48:21;0.80;99.90
20946;DHT22;10632;51.276;7.116;2023-04-03T02:50:49;0.70;99.90
20946;DHT22;10632;51.276;7.116;2023-04-03T02:53:16;0.70;99.90
20946;DHT22;10632;51.276;7.116;2023-04-03T02:55:45;0.70;99.90
20946;DHT22;10632;51.276;7.116;2023-04-03T02:58:12;0.70;99.90
20946;DHT22;10632;51.276;7.116;2023-04-03T03:00:42;0.70;99.90
20946;DHT22;10632;51.276;7.116;2023-04-03T03:03:09;0.70;99.90
20946;DHT22;10632;51.276;7.116;2023-04-03T03:05:35;0.70;99.90
20946;DHT22;10632;51.276;7.116;2023-04-03T03:08:02;0.70;99.90
20946;DHT22;10632;51.276;7.116;2023-04-03T03:10:29;0.70;99.90
20946;DHT22;10632;51.276;7.116;2023-04-03T03:12:57;0.70;99.90
20946;DHT22;10632;51.276;7.116;2023-04-03T03:15:24;0.70;99.90
20946;DHT22;10632;51.276;7.116;2023-04-03T03:17:51;0.70;99.90
20946;DHT22;10632;51.276;7.116;2023-04-03T03:20:18;0.70;99.90
20946;DHT22;10632;51.276;7.116;2023-04-03T03:22:46;0.60;99.90
20946;DHT22;10632;51.276;7.116;2023-04-03T03:25:13;0.60;99.90
20946;DHT22;10632;51.276;7.116;2023-04-03T03:27:40;0.60;99.90
20946;DHT22;10632;51.276;7.116;2023-04-03T03:30:09;0.60;99.90
20946;DHT22;10632;51.276;7.116;2023-04-03T03:32:36;0.50;99.90
20946;DHT22;10632;51.276;7.116;2023-04-03T03:35:04;0.50;99.90
20946;DHT22;10632;51.276;7.116;2023-04-03T03:37:30;0.50;99.90
20946;DHT22;10632;51.276;7.116;2023-04-03T03:39:57;0.50;99.90
20946;DHT22;10632;51.276;7.116;2023-04-03T03:42:24;0.50;99.90
20946;DHT22;10632;51.276;7.116;2023-04-03T03:44:51;0.40;99.90
20946;DHT22;10632;51.276;7.116;2023-04-03T03:47:20;0.40;99.90
20946;DHT22;10632;51.276;7.116;2023-04-03T03:49:47;0.40;99.90
20946;DHT22;10632;51.276;7.116;2023-04-03T03:52:13;0.40;99.90
20946;DHT22;10632;51.276;7.116;2023-04-03T03:54:41;0.40;99.90
20946;DHT22;10632;51.276;7.116;2023-04-03T03:57:08;0.40;99.90
20946;DHT22;10632;51.276;7.116;2023-04-03T03:59:35;0.30;99.90
20946;DHT22;10632;51.276;7.116;2023-04-03T04:02:02;0.30;99.90
20946;DHT22;10632;51.276;7.116;2023-04-03T04:04:30;0.30;99.90
20946;DHT22;10632;51.276;7.116;2023-04-03T04:06:57;0.30;99.90
20946;DHT22;10632;51.276;7.116;2023-04-03T04:09:26;0.30;99.90
20946;DHT22;10632;51.276;7.116;2023-04-03T04:11:53;0.30;99.90
20946;DHT22;10632;51.276;7.116;2023-04-03T04:14:20;0.30;99.90
20946;DHT22;10632;51.276;7.116;2023-04-03T04:16:47;0.20;99.90
20946;DHT22;10632;51.276;7.116;2023-04-03T04:19:14;0.20;99.90
20946;DHT22;10632;51.276;7.116;2023-04-03T04:21:42;0.20;99.90
20946;DHT22;10632;51.276;7.116;2023-04-03T04:24:10;0.20;99.90
20946;DHT22;10632;51.276;7.116;2023-04-03T04:26:39;0.20;99.90
20946;DHT22;10632;51.276;7.116;2023-04-03T04:29:06;0.10;99.90
20946;DHT22;10632;51.276;7.116;2023-04-03T04:31:32;0.10;99.90
20946;DHT22;10632;51.276;7.116;2023-04-03T04:33:59;0.10;99.90
20946;DHT22;10632;51.276;7.116;2023-04-03T04:36:26;0.10;99.90
20946;DHT22;10632;51.276;7.116;2023-04-03T04:38:55;0.10;99.90
20946;DHT22;10632;51.276;7.116;2023-04-03T04:41:24;0.00;99.90
20946;DHT22;10632;51.276;7.116;2023-04-03T04:43:52;0.00;99.90
20946;DHT22;10632;51.276;7.116;2023-04-03T04:46:19;0.00;99.90
20946;DHT22;10632;51.276;7.116;2023-04-03T04:48:46;0.00;99.90
20946;DHT22;10632;51.276;7.116;2023-04-03T04:51:14;0.00;99.90
20946;DHT22;10632;51.276;7.116;2023-04-03T04:53:41;0.00;99.90
20946;DHT22;10632;51.276;7.116;2023-04-03T04:56:10;0.00;99.90
20946;DHT22;10632;51.276;7.116;2023-04-03T04:58:37;0.00;99.90
20946;DHT22;10632;51.276;7.116;2023-04-03T05:01:05;0.00;99.90
20946;DHT22;10632;51.276;7.116;2023-04-03T05:03:32;-0.10;99.90
20946;DHT22;10632;51.276;7.116;2023-04-03T05:05:59;-0.10;99.90
20946;DHT22;10632;51.276;7.116;2023-04-03T05:08:29;-0.10;99.90
20946;DHT22;10632;51.276;7.116;2023-04-03T05:10:56;-0.10;99.90
20946;DHT22;10632;51.276;7.116;2023-04-03T05:13:25;-0.10;99.90
20946;DHT22;10632;51.276;7.116;2023-04-03T05:15:51;-0.10;99.90
20946;DHT22;10632;51.276;7.116;2023-04-03T05:18:18;-0.10;99.90
20946;DHT22;10632;51.276;7.116;2023-04-03T05:20:48;-0.10;99.90
20946;DHT22;10632;51.276;7.116;2023-04-03T05:23:15;-0.10;99.90
20946;DHT22;10632;51.276;7.116;2023-04-03T05:25:42;-0.10;99.90
20946;DHT22;10632;51.276;7.116;2023-04-03T05:28:10;-0.10;99.90
20946;DHT22;10632;51.276;7.116;2023-04-03T05:30:39;-0.10;99.90
20946;DHT22;10632;51.276;7.116;2023-04-03T05:33:06;-0.10;99.90
20946;DHT22;10632;51.276;7.116;2023-04-03T05:35:32;-0.10;99.90
20946;DHT22;10632;51.276;7.116;2023-04-03T05:38:01;-0.10;99.90
20946;DHT22;10632;51.276;7.116;2023-04-03T05:40:28;-0.10;99.90
20946;DHT22;10632;51.276;7.116;2023-04-03T05:42:55;-0.10;99.90
20946;DHT22;10632;51.276;7.116;2023-04-03T05:45:24;-0.10;99.90
20946;DHT22;10632;51.276;7.116;2023-04-03T05:47:52;-0.10;99.90
20946;DHT22;10632;51.276;7.116;2023-04-03T05:50:19;-0.10;99.90
20946;DHT22;10632;51.276;7.116;2023-04-03T05:52:49;-0.10;99.90
20946;DHT22;10632;51.276;7.116;2023-04-03T05:55:16;-0.10;99.90
20946;DHT22;10632;51.276;7.116;2023-04-03T05:57:46;-0.10;99.90
20946;DHT22;10632;51.276;7.116;2023-04-03T06:00:14;-0.10;99.90
20946;DHT22;10632;51.276;7.116;2023-04-03T06:02:42;-0.10;99.90
20946;DHT22;10632;51.276;7.116;2023-04-03T06:05:10;-0.10;99.90
20946;DHT22;10632;51.276;7.116;2023-04-03T06:07:38;0.00;99.90
20946;DHT22;10632;51.276;7.116;2023-04-03T06:10:06;0.00;99.90
20946;DHT22;10632;51.276;7.116;2023-04-03T06:12:34;0.00;99.90
20946;DHT22;10632;51.276;7.116;2023-04-03T06:15:01;0.00;99.90
20946;DHT22;10632;51.276;7.116;2023-04-03T06:17:29;0.00;99.90
20946;DHT22;10632;51.276;7.116;2023-04-03T06:19:56;0.10;99.90
20946;DHT22;10632;51.276;7.116;2023-04-03T06:22:25;0.10;99.90
20946;DHT22;10632;51.276;7.116;2023-04-03T06:24:59;0.10;99.90
20946;DHT22;10632;51.276;7.116;2023-04-03T06:27:26;0.20;99.90
20946;DHT22;10632;51.276;7.116;2023-04-03T06:29:53;0.20;99.90
20946;DHT22;10632;51.276;7.116;2023-04-03T06:32:20;0.20;99.90
20946;DHT22;10632;51.276;7.116;2023-04-03T06:34:47;0.30;99.90
20946;DHT22;10632;51.276;7.116;2023-04-03T06:37:15;0.50;99.90
20946;DHT22;10632;51.276;7.116;2023-04-03T06:39:45;0.50;99.90
20946;DHT22;10632;51.276;7.116;2023-04-03T06:42:12;0.60;99.90
20946;DHT22;10632;51.276;7.116;2023-04-03T06:44:39;0.60;99.90
20946;DHT22;10632;51.276;7.116;2023-04-03T06:47:06;0.60;99.90
20946;DHT22;10632;51.276;7.116;2023-04-03T06:49:34;0.70;99.90
20946;DHT22;10632;51.276;7.116;2023-04-03T06:52:02;0.70;99.90
20946;DHT22;10632;51.276;7.116;2023-04-03T06:54:30;0.80;99.90
20946;DHT22;10632;51.276;7.116;2023-04-03T06:56:58;0.80;99.90
20946;DHT22;10632;51.276;7.116;2023-04-03T06:59:25;0.80;99.90
20946;DHT22;10632;51.276;7.116;2023-04-03T07:01:53;0.90;99.90
20946;DHT22;10632;51.276;7.116;2023-04-03T07:04:20;0.90;99.90
20946;DHT22;10632;51.276;7.116;2023-04-03T07:06:47;1.00;99.90
20946;DHT22;10632;51.276;7.116;2023-04-03T07:09:14;1.00;99.90
20946;DHT22;10632;51.276;7.116;2023-04-03T07:11:42;1.10;99.90
20946;DHT22;10632;51.276;7.116;2023-04-03T07:14:10;1.20;99.90
20946;DHT22;10632;51.276;7.116;2023-04-03T07:16:37;1.30;99.90
20946;DHT22;10632;51.276;7.116;2023-04-03T07:19:04;1.30;99.90
20946;DHT22;10632;51.276;7.116;2023-04-03T07:21:34;1.40;99.90
20946;DHT22;10632;51.276;7.116;2023-04-03T07:24:01;1.50;99.90
20946;DHT22;10632;51.276;7.116;2023-04-03T07:26:28;1.60;99.90
20946;DHT22;10632;51.276;7.116;2023-04-03T07:28:55;1.70;99.90
20946;DHT22;10632;51.276;7.116;2023-04-03T07:31:23;1.80;99.90
20946;DHT22;10632;51.276;7.116;2023-04-03T07:33:50;1.90;99.90
20946;DHT22;10632;51.276;7.116;2023-04-03T07:36:21;2.00;99.90
20946;DHT22;10632;51.276;7.116;2023-04-03T07:38:48;2.10;99.90
20946;DHT22;10632;51.276;7.116;2023-04-03T07:41:17;2.20;99.90
20946;DHT22;10632;51.276;7.116;2023-04-03T07:43:48;2.30;99.90
20946;DHT22;10632;51.276;7.116;2023-04-03T07:46:16;2.30;99.90
20946;DHT22;10632;51.276;7.116;2023-04-03T07:48:45;2.40;99.90
20946;DHT22;10632;51.276;7.116;2023-04-03T07:51:12;2.40;99.90
20946;DHT22;10632;51.276;7.116;2023-04-03T07:53:40;2.50;99.90
20946;DHT22;10632;51.276;7.116;2023-04-03T07:56:08;2.60;99.90
20946;DHT22;10632;51.276;7.116;2023-04-03T07:58:35;2.70;99.90
20946;DHT22;10632;51.276;7.116;2023-04-03T08:01:03;2.80;99.90
20946;DHT22;10632;51.276;7.116;2023-04-03T08:03:30;2.80;99.90
20946;DHT22;10632;51.276;7.116;2023-04-03T08:06:02;2.90;99.90
20946;DHT22;10632;51.276;7.116;2023-04-03T08:08:30;3.00;99.90
20946;DHT22;10632;51.276;7.116;2023-04-03T08:10:58;3.00;99.90
20946;DHT22;10632;51.276;7.116;2023-04-03T08:13:28;3.00;99.90
20946;DHT22;10632;51.276;7.116;2023-04-03T08:15:55;3.00;99.90
20946;DHT22;10632;51.276;7.116;2023-04-03T08:18:23;3.10;99.90
20946;DHT22;10632;51.276;7.116;2023-04-03T08:20:51;3.20;99.90
20946;DHT22;10632;51.276;7.116;2023-04-03T08:23:20;3.30;99.90
20946;DHT22;10632;51.276;7.116;2023-04-03T08:25:47;3.40;99.90
20946;DHT22;10632;51.276;7.116;2023-04-03T08:28:13;3.40;99.90
20946;DHT22;10632;51.276;7.116;2023-04-03T08:30:41;3.40;99.90
20946;DHT22;10632;51.276;7.116;2023-04-03T08:33:09;3.50;99.90
20946;DHT22;10632;51.276;7.116;2023-04-03T08:35:39;3.50;99.90
20946;DHT22;10632;51.276;7.116;2023-04-03T08:38:06;3.50;99.90
20946;DHT22;10632;51.276;7.116;2023-04-03T08:40:34;3.60;99.90
20946;DHT22;10632;51.276;7.116;2023-04-03T08:43:21;3.70;99.90
20946;DHT22;10632;51.276;7.116;2023-04-03T08:45:55;3.70;99.90
20946;DHT22;10632;51.276;7.116;2023-04-03T08:48:28;3.80;99.90
20946;DHT22;10632;51.276;7.116;2023-04-03T08:51:00;3.90;99.90
20946;DHT22;10632;51.276;7.116;2023-04-03T08:53:34;4.00;99.90
20946;DHT22;10632;51.276;7.116;2023-04-03T08:56:07;4.10;99.90
20946;DHT22;10632;51.276;7.116;2023-04-03T08:58:41;4.20;99.90
20946;DHT22;10632;51.276;7.116;2023-04-03T09:01:17;4.30;99.90
20946;DHT22;10632;51.276;7.116;2023-04-03T09:03:45;4.40;99.90
20946;DHT22;10632;51.276;7.116;2023-04-03T09:06:14;4.30;99.90
20946;DHT22;10632;51.276;7.116;2023-04-03T09:08:45;4.40;99.90
20946;DHT22;10632;51.276;7.116;2023-04-03T09:11:19;4.50;99.90
20946;DHT22;10632;51.276;7.116;2023-04-03T09:13:54;4.50;99.90
20946;DHT22;10632;51.276;7.116;2023-04-03T09:16:39;4.60;99.90
20946;DHT22;10632;51.276;7.116;2023-04-03T09:19:21;4.70;99.90
20946;DHT22;10632;51.276;7.116;2023-04-03T09:21:52;4.70;99.90
20946;DHT22;10632;51.276;7.116;2023-04-03T09:24:22;4.80;99.90
20946;DHT22;10632;51.276;7.116;2023-04-03T09:26:54;4.90;99.90
20946;DHT22;10632;51.276;7.116;2023-04-03T09:29:27;4.90;99.90
20946;DHT22;10632;51.276;7.116;2023-04-03T09:31:57;4.90;99.90
20946;DHT22;10632;51.276;7.116;2023-04-03T09:34:28;5.00;99.90
20946;DHT22;10632;51.276;7.116;2023-04-03T09:36:57;5.10;99.90
20946;DHT22;10632;51.276;7.116;2023-04-03T09:39:32;5.20;99.90
20946;DHT22;10632;51.276;7.116;2023-04-03T09:42:03;5.20;99.90
20946;DHT22;10632;51.276;7.116;2023-04-03T09:44:32;5.30;99.90
20946;DHT22;10632;51.276;7.116;2023-04-03T09:47:17;5.30;99.90
20946;DHT22;10632;51.276;7.116;2023-04-03T09:49:47;5.30;99.90
20946;DHT22;10632;51.276;7.116;2023-04-03T09:52:19;5.30;99.90
20946;DHT22;10632;51.276;7.116;2023-04-03T09:54:46;5.40;99.90
20946;DHT22;10632;51.276;7.116;2023-04-03T09:57:15;5.50;99.90
20946;DHT22;10632;51.276;7.116;2023-04-03T09:59:46;5.60;99.90
20946;DHT22;10632;51.276;7.116;2023-04-03T10:02:35;5.70;99.90
20946;DHT22;10632;51.276;7.116;2023-04-03T10:05:04;5.90;99.90
20946;DHT22;10632;51.276;7.116;2023-04-03T10:07:34;5.90;99.90
20946;DHT22;10632;51.276;7.116;2023-04-03T10:10:14;6.20;99.90
20946;DHT22;10632;51.276;7.116;2023-04-03T10:12:44;6.40;99.90
20946;DHT22;10632;51.276;7.116;2023-04-03T10:15:13;6.60;99.90
20946;DHT22;10632;51.276;7.116;2023-04-03T10:17:50;6.80;99.90
20946;DHT22;10632;51.276;7.116;2023-04-03T10:20:27;6.90;99.90
20946;DHT22;10632;51.276;7.116;2023-04-03T10:23:05;7.00;99.90
20946;DHT22;10632;51.276;7.116;2023-04-03T10:25:41;7.10;99.90
20946;DHT22;10632;51.276;7.116;2023-04-03T10:28:15;7.10;99.90
20946;DHT22;10632;51.276;7.116;2023-04-03T10:30:50;7.30;99.90
20946;DHT22;10632;51.276;7.116;2023-04-03T10:33:32;7.50;99.90
20946;DHT22;10632;51.276;7.116;2023-04-03T10:36:10;7.60;99.80
20946;DHT22;10632;51.276;7.116;2023-04-03T10:38:45;7.80;97.60
20946;DHT22;10632;51.276;7.116;2023-04-03T10:41:19;7.90;97.70
20946;DHT22;10632;51.276;7.116;2023-04-03T10:43:56;8.10;96.20
20946;DHT22;10632;51.276;7.116;2023-04-03T10:46:29;8.30;96.80
20946;DHT22;10632;51.276;7.116;2023-04-03T10:49:16;8.40;95.40
20946;DHT22;10632;51.276;7.116;2023-04-03T10:51:47;8.50;93.50
20946;DHT22;10632;51.276;7.116;2023-04-03T10:54:20;8.50;93.00
20946;DHT22;10632;51.276;7.116;2023-04-03T10:56:50;8.60;94.40
20946;DHT22;10632;51.276;7.116;2023-04-03T10:59:27;8.70;93.60
20946;DHT22;10632;51.276;7.116;2023-04-03T11:01:59;8.90;92.00
20946;DHT22;10632;51.276;7.116;2023-04-03T11:04:29;9.00;93.60
20946;DHT22;10632;51.276;7.116;2023-04-03T11:07:01;9.10;93.10
20946;DHT22;10632;51.276;7.116;2023-04-03T11:09:31;9.30;93.40
20946;DHT22;10632;51.276;7.116;2023-04-03T11:12:06;9.40;91.50
20946;DHT22;10632;51.276;7.116;2023-04-03T11:14:38;9.50;92.40
20946;DHT22;10632;51.276;7.116;2023-04-03T11:17:11;9.60;90.60
20946;DHT22;10632;51.276;7.116;2023-04-03T11:19:46;9.60;91.10
20946;DHT22;10632;51.276;7.116;2023-04-03T11:22:23;9.60;91.90
20946;DHT22;10632;51.276;7.116;2023-04-03T11:24:58;9.60;90.80
20946;DHT22;10632;51.276;7.116;2023-04-03T11:27:35;9.60;92.20
20946;DHT22;10632;51.276;7.116;2023-04-03T11:30:12;9.80;91.10
20946;DHT22;10632;51.276;7.116;2023-04-03T11:33:13;9.90;89.60
20946;DHT22;10632;51.276;7.116;2023-04-03T11:35:45;9.90;90.20
20946;DHT22;10632;51.276;7.116;2023-04-03T11:38:19;9.90;91.30
20946;DHT22;10632;51.276;7.116;2023-04-03T11:40:49;10.00;91.30
20946;DHT22;10632;51.276;7.116;2023-04-03T11:43:25;10.40;98.30
20946;DHT22;10632;51.276;7.116;2023-04-03T11:45:58;10.30;98.90
20946;DHT22;10632;51.276;7.116;2023-04-03T11:48:48;10.30;99.40
20946;DHT22;10632;51.276;7.116;2023-04-03T11:51:40;10.30;98.80
20946;DHT22;10632;51.276;7.116;2023-04-03T12:00:49;10.40;98.30
20946;DHT22;10632;51.276;7.116;2023-04-03T12:07:02;10.60;98.30
20946;DHT22;10632;51.276;7.116;2023-04-03T12:10:17;10.50;99.90
20946;DHT22;10632;51.276;7.116;2023-04-03T12:12:56;10.60;99.70
20946;DHT22;10632;51.276;7.116;2023-04-03T12:18:41;10.90;99.80
20946;DHT22;10632;51.276;7.116;2023-04-03T12:21:09;11.00;99.90
20946;DHT22;10632;51.276;7.116;2023-04-03T12:23:59;11.10;99.90
20946;DHT22;10632;51.276;7.116;2023-04-03T12:26:32;11.00;99.10
20946;DHT22;10632;51.276;7.116;2023-04-03T12:29:07;11.00;97.00
20946;DHT22;10632;51.276;7.116;2023-04-03T12:31:42;11.10;96.30
20946;DHT22;10632;51.276;7.116;2023-04-03T12:34:23;11.10;97.20
20946;DHT22;10632;51.276;7.116;2023-04-03T12:37:00;11.00;95.60
20946;DHT22;10632;51.276;7.116;2023-04-03T12:39:51;10.90;96.50
20946;DHT22;10632;51.276;7.116;2023-04-03T12:42:44;10.90;95.60
20946;DHT22;10632;51.276;7.116;2023-04-03T12:45:19;11.00;96.20
20946;DHT22;10632;51.276;7.116;2023-04-03T12:47:49;11.10;96.70
20946;DHT22;10632;51.276;7.116;2023-04-03T12:50:23;11.20;96.10
20946;DHT22;10632;51.276;7.116;2023-04-03T12:52:56;11.50;95.70
20946;DHT22;10632;51.276;7.116;2023-04-03T12:55:25;11.60;96.70
20946;DHT22;10632;51.276;7.116;2023-04-03T12:57:52;11.70;95.30
20946;DHT22;10632;51.276;7.116;2023-04-03T13:00:29;11.80;96.00
20946;DHT22;10632;51.276;7.116;2023-04-03T13:03:01;11.70;94.60
20946;DHT22;10632;51.276;7.116;2023-04-03T13:05:30;11.60;94.80
20946;DHT22;10632;51.276;7.116;2023-04-03T13:08:00;11.60;94.80
20946;DHT22;10632;51.276;7.116;2023-04-03T13:10:30;11.50;95.20
20946;DHT22;10632;51.276;7.116;2023-04-03T13:12:59;11.40;96.40
20946;DHT22;10632;51.276;7.116;2023-04-03T13:15:41;11.40;94.60
20946;DHT22;10632;51.276;7.116;2023-04-03T13:18:25;11.30;94.80
20946;DHT22;10632;51.276;7.116;2023-04-03T13:20:53;11.20;95.70
20946;DHT22;10632;51.276;7.116;2023-04-03T13:23:23;11.10;95.30
20946;DHT22;10632;51.276;7.116;2023-04-03T13:25:52;11.00;94.70
20946;DHT22;10632;51.276;7.116;2023-04-03T13:28:23;10.80;93.90
20946;DHT22;10632;51.276;7.116;2023-04-03T13:31:03;10.60;95.30
20946;DHT22;10632;51.276;7.116;2023-04-03T13:33:33;10.50;95.80
20946;DHT22;10632;51.276;7.116;2023-04-03T13:36:06;10.40;94.90
20946;DHT22;10632;51.276;7.116;2023-04-03T13:38:34;10.30;96.20
20946;DHT22;10632;51.276;7.116;2023-04-03T13:41:20;10.30;96.00
20946;DHT22;10632;51.276;7.116;2023-04-03T13:43:47;10.20;95.50
20946;DHT22;10632;51.276;7.116;2023-04-03T13:46:25;10.10;95.90
20946;DHT22;10632;51.276;7.116;2023-04-03T13:48:54;9.90;96.00
20946;DHT22;10632;51.276;7.116;2023-04-03T13:51:24;9.90;96.00
20946;DHT22;10632;51.276;7.116;2023-04-03T13:53:54;9.70;96.10
20946;DHT22;10632;51.276;7.116;2023-04-03T13:56:27;9.70;95.10
20946;DHT22;10632;51.276;7.116;2023-04-03T13:59:18;9.60;96.00
20946;DHT22;10632;51.276;7.116;2023-04-03T14:01:50;9.40;96.50
20946;DHT22;10632;51.276;7.116;2023-04-03T14:04:20;9.50;96.40
20946;DHT22;10632;51.276;7.116;2023-04-03T14:06:48;9.30;95.60
20946;DHT22;10632;51.276;7.116;2023-04-03T14:09:17;9.20;96.70
20946;DHT22;10632;51.276;7.116;2023-04-03T14:11:46;9.10;96.60
20946;DHT22;10632;51.276;7.116;2023-04-03T14:14:16;9.10;96.00
20946;DHT22;10632;51.276;7.116;2023-04-03T14:16:48;9.00;97.40
20946;DHT22;10632;51.276;7.116;2023-04-03T14:19:21;9.00;97.50
20946;DHT22;10632;51.276;7.116;2023-04-03T14:21:49;9.00;96.70
20946;DHT22;10632;51.276;7.116;2023-04-03T14:24:16;9.00;96.60
20946;DHT22;10632;51.276;7.116;2023-04-03T14:26:46;8.90;96.50
20946;DHT22;10632;51.276;7.116;2023-04-03T14:29:14;8.90;97.50
20946;DHT22;10632;51.276;7.116;2023-04-03T14:31:42;8.90;97.90
20946;DHT22;10632;51.276;7.116;2023-04-03T14:34:10;8.80;97.30
20946;DHT22;10632;51.276;7.116;2023-04-03T14:36:38;8.80;97.30
20946;DHT22;10632;51.276;7.116;2023-04-03T14:39:06;8.70;97.20
20946;DHT22;10632;51.276;7.116;2023-04-03T14:41:34;8.70;97.30
20946;DHT22;10632;51.276;7.116;2023-04-03T14:44:03;8.70;97.60
20946;DHT22;10632;51.276;7.116;2023-04-03T14:46:33;8.60;97.80
20946;DHT22;10632;51.276;7.116;2023-04-03T14:49:00;8.60;97.80
20946;DHT22;10632;51.276;7.116;2023-04-03T14:51:27;8.60;97.30
20946;DHT22;10632;51.276;7.116;2023-04-03T14:53:54;8.50;97.90
20946;DHT22;10632;51.276;7.116;2023-04-03T14:56:23;8.50;98.00
20946;DHT22;10632;51.276;7.116;2023-04-03T14:58:55;8.50;97.40
20946;DHT22;10632;51.276;7.116;2023-04-03T15:01:24;8.40;97.80
20946;DHT22;10632;51.276;7.116;2023-04-03T15:03:51;8.30;96.50
20946;DHT22;10632;51.276;7.116;2023-04-03T15:06:18;8.20;97.50
20946;DHT22;10632;51.276;7.116;2023-04-03T15:08:46;8.30;97.40
20946;DHT22;10632;51.276;7.116;2023-04-03T15:11:14;8.30;97.80
20946;DHT22;10632;51.276;7.116;2023-04-03T15:13:42;8.20;98.40
20946;DHT22;10632;51.276;7.116;2023-04-03T15:16:14;8.10;98.80
20946;DHT22;10632;51.276;7.116;2023-04-03T15:18:43;8.20;98.00
20946;DHT22;10632;51.276;7.116;2023-04-03T15:21:10;8.20;98.60
20946;DHT22;10632;51.276;7.116;2023-04-03T15:23:37;8.10;97.90
20946;DHT22;10632;51.276;7.116;2023-04-03T15:26:05;8.00;97.10
20946;DHT22;10632;51.276;7.116;2023-04-03T15:28:35;8.00;97.80
20946;DHT22;10632;51.276;7.116;2023-04-03T15:31:02;8.00;97.70
20946;DHT22;10632;51.276;7.116;2023-04-03T15:33:29;7.90;98.70
20946;DHT22;10632;51.276;7.116;2023-04-03T15:35:58;8.00;98.30
20946;DHT22;10632;51.276;7.116;2023-04-03T15:38:25;7.90;97.60
20946;DHT22;10632;51.276;7.116;2023-04-03T15:40:52;7.80;97.50
20946;DHT22;10632;51.276;7.116;2023-04-03T15:43:20;7.80;98.30
20946;DHT22;10632;51.276;7.116;2023-04-03T15:45:47;7.70;98.10
20946;DHT22;10632;51.276;7.116;2023-04-03T15:48:14;7.70;98.00
20946;DHT22;10632;51.276;7.116;2023-04-03T15:50:41;7.70;98.30
20946;DHT22;10632;51.276;7.116;2023-04-03T15:53:09;7.70;98.50
20946;DHT22;10632;51.276;7.116;2023-04-03T15:55:38;7.70;98.30
20946;DHT22;10632;51.276;7.116;2023-04-03T15:58:05;7.60;98.00
20946;DHT22;10632;51.276;7.116;2023-04-03T16:00:32;7.60;97.50
20946;DHT22;10632;51.276;7.116;2023-04-03T16:03:04;7.50;98.30
20946;DHT22;10632;51.276;7.116;2023-04-03T16:05:31;7.60;98.20
20946;DHT22;10632;51.276;7.116;2023-04-03T16:08:00;7.50;98.80
20946;DHT22;10632;51.276;7.116;2023-04-03T16:10:28;7.60;98.70
20946;DHT22;10632;51.276;7.116;2023-04-03T16:12:55;7.50;98.80
20946;DHT22;10632;51.276;7.116;2023-04-03T16:15:23;7.60;98.50